createdAt,value
2017-01-22T00:00:25.849Z,0
2017-01-22T00:01:35.094Z,0
2017-01-22T00:02:44.640Z,0
2017-01-22T00:03:54.216Z,0
2017-01-22T00:05:04.369Z,0
2017-01-22T00:06:13.758Z,0
2017-01-22T00:07:23.322Z,0
2017-01-22T00:08:32.926Z,0
2017-01-22T00:09:42.545Z,0
2017-01-22T00:10:53.058Z,0
2017-01-22T00:12:03.903Z,0
2017-01-22T00:13:14.947Z,0
2017-01-22T00:14:25.308Z,0
2017-01-22T00:15:35.692Z,0
2017-01-22T00:16:47.073Z,0
2017-01-22T00:17:57.582Z,0
2017-01-22T00:19:08.168Z,0
2017-01-22T00:20:18.681Z,0
2017-01-22T00:21:29.237Z,0
2017-01-22T00:22:40.438Z,0
2017-01-22T00:23:51.376Z,0
2017-01-22T00:25:02.387Z,0
2017-01-22T00:26:13.270Z,0
2017-01-22T00:27:24.533Z,0
2017-01-22T00:28:35.268Z,0
2017-01-22T00:29:45.508Z,0
2017-01-22T00:30:55.930Z,0
2017-01-22T00:32:06.430Z,0
2017-01-22T00:33:17.055Z,0
2017-01-22T00:34:27.656Z,0
2017-01-22T00:35:38.556Z,0
2017-01-22T00:36:47.512Z,0
2017-01-22T00:37:56.468Z,0
2017-01-22T00:39:05.423Z,0
2017-01-22T00:40:16.571Z,0
2017-01-22T00:41:27.922Z,0
2017-01-22T00:42:38.963Z,0
2017-01-22T00:43:49.713Z,0
2017-01-22T00:45:00.091Z,0
2017-01-22T00:46:10.801Z,0
2017-01-22T00:47:20.677Z,0
2017-01-22T00:48:30.503Z,0
2017-01-22T00:49:39.952Z,0
2017-01-22T00:50:49.019Z,0
2017-01-22T00:51:59.562Z,0
2017-01-22T00:53:10.035Z,0
2017-01-22T00:54:20.995Z,0
2017-01-22T00:55:31.590Z,0
2017-01-22T00:56:41.486Z,0
2017-01-22T00:57:50.986Z,0
2017-01-22T00:59:01.409Z,0
2017-01-22T01:00:11.160Z,0
2017-01-22T01:01:21.057Z,0
2017-01-22T01:02:30.008Z,0
2017-01-22T01:03:41.549Z,0
2017-01-22T01:04:50.863Z,0
2017-01-22T01:06:01.064Z,0
2017-01-22T01:07:11.505Z,0
2017-01-22T01:08:20.549Z,0
2017-01-22T01:09:29.503Z,0
2017-01-22T01:10:38.455Z,0
2017-01-22T01:11:50.417Z,0
2017-01-22T01:13:04.016Z,0
2017-01-22T01:14:15.923Z,0
2017-01-22T01:15:28.425Z,0
2017-01-22T01:16:44.126Z,0
2017-01-22T01:17:58.519Z,0
2017-01-22T01:19:09.409Z,0
2017-01-22T01:20:31.435Z,0
2017-01-22T01:21:56.397Z,0
2017-01-22T01:23:07.138Z,0
2017-01-22T01:24:18.498Z,0
2017-01-22T01:25:27.815Z,0
2017-01-22T01:26:41.016Z,0
2017-01-22T01:27:53.332Z,0
2017-01-22T01:29:08.093Z,0
2017-01-22T01:30:20.724Z,0
2017-01-22T01:31:35.313Z,0
2017-01-22T01:32:49.115Z,0
2017-01-22T01:34:01.359Z,0
2017-01-22T01:35:13.619Z,0
2017-01-22T01:36:31.645Z,0
2017-01-22T01:37:50.839Z,0
2017-01-22T01:39:08.779Z,0
2017-01-22T01:40:22.365Z,0
2017-01-22T01:41:42.319Z,0
2017-01-22T01:42:59.341Z,0
2017-01-22T01:44:21.420Z,0
2017-01-22T01:45:40.214Z,0
2017-01-22T01:46:57.829Z,0
2017-01-22T01:48:12.888Z,0
2017-01-22T01:49:33.314Z,0
2017-01-22T01:50:51.923Z,0
2017-01-22T01:52:08.336Z,0
2017-01-22T01:53:25.848Z,0
2017-01-22T01:54:45.758Z,0
2017-01-22T01:56:06.591Z,0
2017-01-22T01:57:28.495Z,0
2017-01-22T01:58:49.846Z,0
2017-01-22T02:00:08.221Z,0
2017-01-22T02:01:27.826Z,0
2017-01-22T02:02:48.880Z,0
2017-01-22T02:04:08.861Z,0
2017-01-22T02:05:30.006Z,0
2017-01-22T02:06:45.362Z,0
2017-01-22T02:08:06.511Z,0
2017-01-22T02:09:21.212Z,0
2017-01-22T02:10:35.340Z,0
2017-01-22T02:11:54.397Z,0
2017-01-22T02:13:08.225Z,0
2017-01-22T02:14:27.820Z,0
2017-01-22T02:15:50.263Z,0
2017-01-22T02:17:11.133Z,0
2017-01-22T02:18:25.092Z,0
2017-01-22T02:19:39.385Z,0
2017-01-22T02:20:52.267Z,0
2017-01-22T02:22:03.869Z,0
2017-01-22T02:23:26.908Z,0
2017-01-22T02:24:41.751Z,0
2017-01-22T02:25:54.187Z,0
2017-01-22T02:27:14.690Z,0
2017-01-22T02:28:38.423Z,0
2017-01-22T02:29:52.142Z,0
2017-01-22T02:31:07.685Z,0
2017-01-22T02:32:21.459Z,0
2017-01-22T02:33:33.597Z,0
2017-01-22T02:34:43.643Z,0
2017-01-22T02:35:52.595Z,0
2017-01-22T02:37:04.328Z,0
2017-01-22T02:38:15.585Z,0
2017-01-22T02:39:27.068Z,0
2017-01-22T02:40:37.585Z,0
2017-01-22T02:41:50.803Z,0
2017-01-22T02:43:00.898Z,0
2017-01-22T02:44:11.513Z,0
2017-01-22T02:45:22.837Z,0
2017-01-22T02:46:34.915Z,0
2017-01-22T02:47:46.080Z,0
2017-01-22T02:48:56.733Z,0
2017-01-22T02:50:09.095Z,0
2017-01-22T02:51:20.985Z,0
2017-01-22T02:52:32.617Z,0
2017-01-22T02:53:41.579Z,0
2017-01-22T02:54:54.144Z,0
2017-01-22T02:56:06.801Z,0
2017-01-22T02:57:18.856Z,0
2017-01-22T02:58:30.790Z,0
2017-01-22T02:59:45.162Z,0
2017-01-22T03:00:56.815Z,0
2017-01-22T03:02:08.863Z,0
2017-01-22T03:03:19.298Z,0
2017-01-22T03:04:33.498Z,0
2017-01-22T03:05:45.385Z,0
2017-01-22T03:06:58.114Z,0
2017-01-22T03:08:10.033Z,0
2017-01-22T03:09:20.860Z,0
2017-01-22T03:10:33.565Z,0
2017-01-22T03:11:45.982Z,0
2017-01-22T03:12:58.322Z,0
2017-01-22T03:14:09.009Z,0
2017-01-22T03:15:22.468Z,0
2017-01-22T03:16:34.214Z,0
2017-01-22T03:17:44.788Z,0
2017-01-22T03:18:58.425Z,0
2017-01-22T03:20:10.470Z,0
2017-01-22T03:21:22.362Z,0
2017-01-22T03:22:32.713Z,0
2017-01-22T03:23:47.645Z,0
2017-01-22T03:24:57.353Z,0
2017-01-22T03:26:09.699Z,0
2017-01-22T03:27:21.295Z,0
2017-01-22T03:28:33.532Z,0
2017-01-22T03:29:45.686Z,0
2017-01-22T03:30:58.240Z,0
2017-01-22T03:32:10.016Z,0
2017-01-22T03:33:22.312Z,0
2017-01-22T03:34:33.064Z,0
2017-01-22T03:35:45.670Z,0
2017-01-22T03:36:56.986Z,0
2017-01-22T03:38:08.962Z,0
2017-01-22T03:39:20.459Z,0
2017-01-22T03:40:32.133Z,0
2017-01-22T03:41:44.443Z,0
2017-01-22T03:42:53.400Z,0
2017-01-22T03:44:02.379Z,0
2017-01-22T03:45:11.340Z,0
2017-01-22T03:46:20.294Z,0
2017-01-22T03:47:29.247Z,0
2017-01-22T03:48:38.202Z,0
2017-01-22T03:49:47.280Z,0
2017-01-22T03:50:56.234Z,0
2017-01-22T03:52:05.189Z,0
2017-01-22T03:53:14.147Z,0
2017-01-22T03:54:23.100Z,0
2017-01-22T03:55:32.050Z,0
2017-01-22T03:56:41.012Z,0
2017-01-22T03:57:49.971Z,0
2017-01-22T03:58:58.923Z,0
2017-01-22T04:00:07.884Z,0
2017-01-22T04:01:16.839Z,0
2017-01-22T04:02:25.793Z,0
2017-01-22T04:03:34.751Z,0
2017-01-22T04:04:43.735Z,0
2017-01-22T04:05:52.693Z,0
2017-01-22T04:07:01.646Z,0
2017-01-22T04:08:10.601Z,0
2017-01-22T04:09:19.557Z,0
2017-01-22T04:10:28.509Z,0
2017-01-22T04:11:37.559Z,0
2017-01-22T04:12:46.519Z,0
2017-01-22T04:13:55.563Z,0
2017-01-22T04:15:04.522Z,0
2017-01-22T04:16:13.483Z,0
2017-01-22T04:17:22.441Z,0
2017-01-22T04:18:31.413Z,0
2017-01-22T04:19:40.367Z,0
2017-01-22T04:20:49.317Z,0
2017-01-22T04:21:58.271Z,0
2017-01-22T04:23:07.228Z,0
2017-01-22T04:24:16.179Z,0
2017-01-22T04:25:25.131Z,0
2017-01-22T04:26:34.085Z,0
2017-01-22T04:27:43.038Z,0
2017-01-22T04:28:51.989Z,0
2017-01-22T04:30:00.942Z,0
2017-01-22T04:31:09.984Z,0
2017-01-22T04:32:18.935Z,0
2017-01-22T04:33:27.912Z,0
2017-01-22T04:34:36.864Z,0
2017-01-22T04:35:45.817Z,0
2017-01-22T04:36:54.776Z,0
2017-01-22T04:38:03.730Z,0
2017-01-22T04:39:12.682Z,0
2017-01-22T04:40:21.642Z,0
2017-01-22T04:41:30.596Z,0
2017-01-22T04:42:39.583Z,0
2017-01-22T04:43:48.543Z,0
2017-01-22T04:44:57.496Z,0
2017-01-22T04:46:06.445Z,0
2017-01-22T04:47:15.399Z,0
2017-01-22T04:48:24.348Z,0
2017-01-22T04:49:33.303Z,0
2017-01-22T04:50:42.252Z,0
2017-01-22T04:51:51.204Z,0
2017-01-22T04:53:00.159Z,0
2017-01-22T04:54:09.114Z,0
2017-01-22T04:55:18.069Z,0
2017-01-22T04:56:27.024Z,0
2017-01-22T04:57:35.982Z,0
2017-01-22T04:58:44.943Z,0
2017-01-22T04:59:53.897Z,0
2017-01-22T05:01:02.854Z,0
2017-01-22T05:02:11.810Z,0
2017-01-22T05:03:20.759Z,0
2017-01-22T05:04:29.715Z,0
2017-01-22T05:05:38.663Z,0
2017-01-22T05:06:47.618Z,0
2017-01-22T05:07:56.620Z,0
2017-01-22T05:09:05.599Z,0
2017-01-22T05:10:14.552Z,0
2017-01-22T05:11:23.504Z,0
2017-01-22T05:12:32.456Z,0
2017-01-22T05:13:41.411Z,0
2017-01-22T05:14:50.369Z,0
2017-01-22T05:15:59.319Z,0
2017-01-22T05:17:08.279Z,0
2017-01-22T05:18:17.235Z,0
2017-01-22T05:19:26.187Z,0
2017-01-22T05:20:35.139Z,0
2017-01-22T05:21:44.093Z,0
2017-01-22T05:22:53.045Z,0
2017-01-22T05:24:02.088Z,0
2017-01-22T05:25:11.040Z,0
2017-01-22T05:26:19.999Z,0
2017-01-22T05:27:29.037Z,0
2017-01-22T05:28:37.993Z,0
2017-01-22T05:29:46.948Z,0
2017-01-22T05:30:55.898Z,0
2017-01-22T05:32:04.847Z,0
2017-01-22T05:33:13.795Z,0
2017-01-22T05:34:22.830Z,0
2017-01-22T05:35:31.780Z,0
2017-01-22T05:36:40.741Z,0
2017-01-22T05:37:49.695Z,0
2017-01-22T05:38:58.643Z,0
2017-01-22T05:40:07.592Z,0
2017-01-22T05:41:16.547Z,0
2017-01-22T05:42:25.507Z,0
2017-01-22T05:43:34.457Z,0
2017-01-22T05:44:43.425Z,0
2017-01-22T05:45:52.383Z,0
2017-01-22T05:47:01.338Z,0
2017-01-22T05:48:10.291Z,0
2017-01-22T05:49:19.249Z,0
2017-01-22T05:50:28.199Z,0
2017-01-22T05:51:37.153Z,0
2017-01-22T05:52:46.119Z,0
2017-01-22T05:53:55.077Z,0
2017-01-22T05:55:04.087Z,0
2017-01-22T05:56:13.041Z,0
2017-01-22T05:57:21.999Z,0
2017-01-22T05:58:30.968Z,0
2017-01-22T05:59:39.929Z,0
2017-01-22T06:00:48.887Z,0
2017-01-22T06:01:57.847Z,0
2017-01-22T06:03:06.802Z,0
2017-01-22T06:04:15.781Z,0
2017-01-22T06:05:24.736Z,0
2017-01-22T06:06:33.686Z,0
2017-01-22T06:07:42.731Z,0
2017-01-22T06:08:51.689Z,0
2017-01-22T06:10:00.649Z,0
2017-01-22T06:11:09.603Z,0
2017-01-22T06:12:18.555Z,0
2017-01-22T06:13:27.508Z,0
2017-01-22T06:14:36.461Z,0
2017-01-22T06:15:45.408Z,0
2017-01-22T06:16:54.360Z,0
2017-01-22T06:18:03.324Z,0
2017-01-22T06:19:12.285Z,0
2017-01-22T06:20:21.245Z,0
2017-01-22T06:21:30.201Z,0
2017-01-22T06:22:39.241Z,0
2017-01-22T06:23:48.197Z,0
2017-01-22T06:24:57.147Z,0
2017-01-22T06:26:06.191Z,0
2017-01-22T06:27:15.231Z,0
2017-01-22T06:28:24.184Z,0
2017-01-22T06:29:33.143Z,0
2017-01-22T06:30:42.098Z,0
2017-01-22T06:31:51.077Z,0
2017-01-22T06:33:00.115Z,0
2017-01-22T06:34:09.065Z,0
2017-01-22T06:35:18.016Z,0
2017-01-22T06:36:26.976Z,0
2017-01-22T06:37:35.920Z,0
2017-01-22T06:38:44.876Z,0
2017-01-22T06:39:53.829Z,0
2017-01-22T06:41:02.873Z,0
2017-01-22T06:42:11.821Z,0
2017-01-22T06:43:20.774Z,0
2017-01-22T06:44:29.731Z,0
2017-01-22T06:45:38.686Z,0
2017-01-22T06:46:47.642Z,0
2017-01-22T06:47:56.595Z,0
2017-01-22T06:49:05.546Z,0
2017-01-22T06:50:14.500Z,0
2017-01-22T06:51:23.466Z,0
2017-01-22T06:52:32.422Z,0
2017-01-22T06:53:41.374Z,0
2017-01-22T06:54:50.335Z,0
2017-01-22T06:55:59.296Z,0
2017-01-22T06:57:08.246Z,0
2017-01-22T06:58:17.196Z,0
2017-01-22T06:59:26.149Z,0
2017-01-22T07:00:35.130Z,0
2017-01-22T07:01:44.084Z,0
2017-01-22T07:02:53.034Z,0
2017-01-22T07:04:02.074Z,0
2017-01-22T07:05:11.028Z,0
2017-01-22T07:06:20.004Z,5
2017-01-22T07:07:28.960Z,5
2017-01-22T07:08:37.912Z,5
2017-01-22T07:09:46.865Z,5
2017-01-22T07:10:55.814Z,5
2017-01-22T07:12:04.763Z,5
2017-01-22T07:13:13.719Z,5
2017-01-22T07:14:22.701Z,5
2017-01-22T07:15:31.686Z,5
2017-01-22T07:16:40.644Z,5
2017-01-22T07:17:49.684Z,5
2017-01-22T07:18:58.630Z,5
2017-01-22T07:20:07.581Z,10
2017-01-22T07:21:16.536Z,10
2017-01-22T07:22:25.490Z,10
2017-01-22T07:23:34.453Z,10
2017-01-22T07:24:43.409Z,10
2017-01-22T07:25:52.363Z,10
2017-01-22T07:27:02.066Z,10
2017-01-22T07:28:11.304Z,10
2017-01-22T07:29:20.262Z,10
2017-01-22T07:30:29.215Z,10
2017-01-22T07:31:38.167Z,10
2017-01-22T07:32:47.179Z,15
2017-01-22T07:33:56.136Z,15
2017-01-22T07:35:05.092Z,15
2017-01-22T07:36:14.053Z,15
2017-01-22T07:37:23.007Z,15
2017-01-22T07:38:31.965Z,15
2017-01-22T07:39:40.922Z,20
2017-01-22T07:40:49.876Z,20
2017-01-22T07:41:58.898Z,20
2017-01-22T07:43:07.853Z,20
2017-01-22T07:44:17.704Z,15
2017-01-22T07:45:26.662Z,20
2017-01-22T07:46:35.625Z,20
2017-01-22T07:47:44.577Z,20
2017-01-22T07:48:53.530Z,20
2017-01-22T07:50:02.485Z,20
2017-01-22T07:51:11.441Z,20
2017-01-22T07:52:20.396Z,25
2017-01-22T07:53:29.352Z,20
2017-01-22T07:54:38.305Z,20
2017-01-22T07:55:47.263Z,25
2017-01-22T07:56:56.246Z,25
2017-01-22T07:58:05.195Z,25
2017-01-22T07:59:14.147Z,25
2017-01-22T08:00:23.103Z,25
2017-01-22T08:01:32.053Z,25
2017-01-22T08:02:41.034Z,25
2017-01-22T08:03:50.905Z,25
2017-01-22T08:04:59.860Z,25
2017-01-22T08:06:08.814Z,25
2017-01-22T08:07:17.770Z,25
2017-01-22T08:08:26.717Z,30
2017-01-22T08:09:35.673Z,25
2017-01-22T08:10:44.658Z,30
2017-01-22T08:11:53.618Z,30
2017-01-22T08:13:02.572Z,30
2017-01-22T08:14:11.527Z,30
2017-01-22T08:15:20.571Z,30
2017-01-22T08:16:29.526Z,30
2017-01-22T08:17:38.478Z,30
2017-01-22T08:18:47.435Z,30
2017-01-22T08:19:56.388Z,30
2017-01-22T08:21:05.342Z,35
2017-01-22T08:22:14.296Z,30
2017-01-22T08:23:23.335Z,30
2017-01-22T08:24:32.292Z,35
2017-01-22T08:25:42.463Z,35
2017-01-22T08:26:52.690Z,35
2017-01-22T08:28:02.723Z,40
2017-01-22T08:29:13.562Z,35
2017-01-22T08:30:23.714Z,35
2017-01-22T08:31:33.139Z,35
2017-01-22T08:32:42.446Z,40
2017-01-22T08:33:52.020Z,35
2017-01-22T08:35:01.683Z,35
2017-01-22T08:36:11.376Z,45
2017-01-22T08:37:21.422Z,40
2017-01-22T08:38:31.039Z,40
2017-01-22T08:39:41.047Z,40
2017-01-22T08:40:50.560Z,45
2017-01-22T08:42:00.848Z,40
2017-01-22T08:43:11.076Z,40
2017-01-22T08:44:21.309Z,40
2017-01-22T08:45:31.193Z,40
2017-01-22T08:46:41.672Z,45
2017-01-22T08:47:52.191Z,45
2017-01-22T08:49:01.744Z,45
2017-01-22T08:50:11.752Z,40
2017-01-22T08:51:22.256Z,40
2017-01-22T08:52:32.609Z,40
2017-01-22T08:53:42.322Z,45
2017-01-22T08:54:52.054Z,50
2017-01-22T08:56:01.910Z,50
2017-01-22T08:57:10.968Z,50
2017-01-22T08:58:20.565Z,45
2017-01-22T08:59:31.250Z,55
2017-01-22T09:00:41.396Z,50
2017-01-22T09:01:51.526Z,45
2017-01-22T09:03:01.112Z,50
2017-01-22T09:04:10.631Z,50
2017-01-22T09:05:20.229Z,50
2017-01-22T09:06:30.410Z,50
2017-01-22T09:07:39.929Z,45
2017-01-22T09:08:50.311Z,45
2017-01-22T09:10:00.096Z,45
2017-01-22T09:11:10.595Z,45
2017-01-22T09:12:20.485Z,45
2017-01-22T09:13:29.883Z,45
2017-01-22T09:14:39.457Z,45
2017-01-22T09:15:49.033Z,45
2017-01-22T09:16:58.626Z,45
2017-01-22T09:18:08.106Z,45
2017-01-22T09:19:17.204Z,45
2017-01-22T09:20:26.831Z,45
2017-01-22T09:21:36.053Z,45
2017-01-22T09:22:45.607Z,45
2017-01-22T09:23:54.797Z,45
2017-01-22T09:25:03.761Z,45
2017-01-22T09:26:12.717Z,45
2017-01-22T09:27:21.674Z,45
2017-01-22T09:28:30.622Z,45
2017-01-22T09:29:39.661Z,50
2017-01-22T09:30:48.622Z,50
2017-01-22T09:31:57.574Z,50
2017-01-22T09:33:06.530Z,50
2017-01-22T09:34:15.489Z,50
2017-01-22T09:35:24.449Z,50
2017-01-22T09:36:33.494Z,50
2017-01-22T09:37:43.423Z,50
2017-01-22T09:38:54.073Z,50
2017-01-22T09:40:03.397Z,50
2017-01-22T09:41:12.949Z,45
2017-01-22T09:42:22.440Z,45
2017-01-22T09:43:32.767Z,50
2017-01-22T09:44:42.964Z,45
2017-01-22T09:45:52.488Z,50
2017-01-22T09:47:01.869Z,50
2017-01-22T09:48:12.589Z,50
2017-01-22T09:49:21.912Z,50
2017-01-22T09:50:31.220Z,50
2017-01-22T09:51:40.751Z,50
2017-01-22T09:52:50.031Z,50
2017-01-22T09:53:59.234Z,50
2017-01-22T09:55:08.191Z,50
2017-01-22T09:56:17.728Z,50
2017-01-22T09:57:26.937Z,50
2017-01-22T09:58:35.893Z,50
2017-01-22T09:59:44.856Z,50
2017-01-22T10:00:54.390Z,50
2017-01-22T10:02:04.356Z,50
2017-01-22T10:03:13.310Z,50
2017-01-22T10:04:22.264Z,50
2017-01-22T10:05:32.092Z,50
2017-01-22T10:06:41.760Z,50
2017-01-22T10:07:50.762Z,50
2017-01-22T10:09:00.466Z,50
2017-01-22T10:10:09.990Z,50
2017-01-22T10:11:19.564Z,50
2017-01-22T10:12:28.521Z,50
2017-01-22T10:13:37.472Z,50
2017-01-22T10:14:46.694Z,50
2017-01-22T10:15:55.967Z,50
2017-01-22T10:17:05.208Z,50
2017-01-22T10:18:14.887Z,50
2017-01-22T10:19:23.857Z,50
2017-01-22T10:20:33.094Z,50
2017-01-22T10:21:42.055Z,50
2017-01-22T10:22:51.251Z,50
2017-01-22T10:24:00.204Z,50
2017-01-22T10:25:10.101Z,55
2017-01-22T10:26:19.293Z,55
2017-01-22T10:27:28.513Z,55
2017-01-22T10:28:37.469Z,50
2017-01-22T10:29:46.440Z,50
2017-01-22T10:30:55.444Z,50
2017-01-22T10:32:04.698Z,55
2017-01-22T10:33:13.928Z,50
2017-01-22T10:34:22.896Z,50
2017-01-22T10:35:32.086Z,55
2017-01-22T10:36:41.114Z,55
2017-01-22T10:37:50.517Z,55
2017-01-22T10:38:59.470Z,55
2017-01-22T10:40:08.812Z,55
2017-01-22T10:41:18.126Z,55
2017-01-22T10:42:27.275Z,55
2017-01-22T10:43:36.510Z,55
2017-01-22T10:44:45.777Z,55
2017-01-22T10:45:55.479Z,55
2017-01-22T10:47:04.520Z,55
2017-01-22T10:48:13.842Z,55
2017-01-22T10:49:23.201Z,55
2017-01-22T10:50:32.171Z,55
2017-01-22T10:51:41.209Z,55
2017-01-22T10:52:52.219Z,55
2017-01-22T10:54:01.854Z,55
2017-01-22T10:55:10.895Z,55
2017-01-22T10:56:19.851Z,55
2017-01-22T10:57:29.193Z,55
2017-01-22T10:58:38.435Z,55
2017-01-22T10:59:47.477Z,55
2017-01-22T11:00:56.585Z,55
2017-01-22T11:02:05.684Z,55
2017-01-22T11:03:15.016Z,55
2017-01-22T11:04:23.972Z,55
2017-01-22T11:05:33.090Z,55
2017-01-22T11:06:42.048Z,55
2017-01-22T11:07:51.644Z,55
2017-01-22T11:09:04.816Z,55
2017-01-22T11:10:14.771Z,55
2017-01-22T11:11:24.453Z,55
2017-01-22T11:12:34.137Z,55
2017-01-22T11:13:44.158Z,55
2017-01-22T11:14:53.464Z,55
2017-01-22T11:16:02.421Z,55
2017-01-22T11:17:11.865Z,55
2017-01-22T11:18:20.913Z,55
2017-01-22T11:19:31.188Z,55
2017-01-22T11:20:40.953Z,55
2017-01-22T11:21:50.535Z,55
2017-01-22T11:22:59.803Z,55
2017-01-22T11:24:09.720Z,55
2017-01-22T11:25:19.216Z,55
2017-01-22T11:26:28.662Z,55
2017-01-22T11:27:38.093Z,55
2017-01-22T11:28:47.643Z,55
2017-01-22T11:29:56.974Z,55
2017-01-22T11:31:06.341Z,55
2017-01-22T11:32:15.910Z,55
2017-01-22T11:33:25.331Z,55
2017-01-22T11:34:39.507Z,55
2017-01-22T11:35:49.870Z,55
2017-01-22T11:37:00.302Z,55
2017-01-22T11:38:10.386Z,55
2017-01-22T11:39:19.351Z,55
2017-01-22T11:40:28.891Z,55
2017-01-22T11:41:37.866Z,55
2017-01-22T11:42:47.383Z,55
2017-01-22T11:43:56.626Z,55
2017-01-22T11:45:05.842Z,55
2017-01-22T11:46:15.433Z,55
2017-01-22T11:47:24.478Z,55
2017-01-22T11:48:33.437Z,55
2017-01-22T11:49:42.391Z,55
2017-01-22T11:50:52.779Z,55
2017-01-22T11:52:02.746Z,55
2017-01-22T11:53:11.704Z,55
2017-01-22T11:54:21.155Z,55
2017-01-22T11:55:30.110Z,55
2017-01-22T11:56:39.064Z,55
2017-01-22T11:57:48.026Z,55
2017-01-22T11:58:57.107Z,55
2017-01-22T12:00:06.916Z,55
2017-01-22T12:01:15.980Z,55
2017-01-22T12:02:25.329Z,55
2017-01-22T12:03:34.635Z,55
2017-01-22T12:04:43.839Z,55
2017-01-22T12:05:52.793Z,55
2017-01-22T12:07:01.797Z,55
2017-01-22T12:08:10.984Z,55
2017-01-22T12:09:20.632Z,50
2017-01-22T12:10:29.595Z,50
2017-01-22T12:11:38.822Z,50
2017-01-22T12:12:48.272Z,50
2017-01-22T12:13:57.470Z,50
2017-01-22T12:15:06.437Z,50
2017-01-22T12:16:16.154Z,50
2017-01-22T12:17:25.117Z,50
2017-01-22T12:18:36.201Z,50
2017-01-22T12:19:47.400Z,50
2017-01-22T12:20:57.825Z,55
2017-01-22T12:22:08.933Z,50
2017-01-22T12:23:19.708Z,50
2017-01-22T12:24:31.495Z,50
2017-01-22T12:25:40.646Z,50
2017-01-22T12:27:03.870Z,50
2017-01-22T12:28:24.915Z,50
2017-01-22T12:29:47.005Z,50
2017-01-22T12:30:59.496Z,50
2017-01-22T12:32:08.452Z,50
2017-01-22T12:33:17.428Z,50
2017-01-22T12:34:26.383Z,50
2017-01-22T12:35:35.335Z,50
2017-01-22T12:36:44.287Z,50
2017-01-22T12:37:53.247Z,50
2017-01-22T12:39:02.203Z,50
2017-01-22T12:40:11.162Z,50
2017-01-22T12:41:20.123Z,50
2017-01-22T12:42:29.072Z,50
2017-01-22T12:43:38.032Z,50
2017-01-22T12:44:46.992Z,50
2017-01-22T12:45:55.954Z,50
2017-01-22T12:47:04.906Z,50
2017-01-22T12:48:13.860Z,50
2017-01-22T12:49:22.814Z,50
2017-01-22T12:50:31.863Z,50
2017-01-22T12:51:40.819Z,50
2017-01-22T12:52:49.859Z,50
2017-01-22T12:53:58.815Z,50
2017-01-22T12:55:07.775Z,45
2017-01-22T12:56:16.830Z,45
2017-01-22T12:57:25.785Z,45
2017-01-22T12:58:34.828Z,45
2017-01-22T12:59:43.791Z,45
2017-01-22T13:00:52.746Z,45
2017-01-22T13:02:01.909Z,45
2017-01-22T13:03:11.403Z,45
2017-01-22T13:04:22.937Z,45
2017-01-22T13:05:32.306Z,45
2017-01-22T13:06:43.814Z,45
2017-01-22T13:07:53.857Z,45
2017-01-22T13:09:04.231Z,45
2017-01-22T13:10:14.505Z,45
2017-01-22T13:11:24.696Z,45
2017-01-22T13:12:34.541Z,45
2017-01-22T13:13:43.908Z,45
2017-01-22T13:14:54.067Z,45
2017-01-22T13:16:04.267Z,45
2017-01-22T13:17:14.613Z,45
2017-01-22T13:18:23.879Z,45
2017-01-22T13:19:32.931Z,45
2017-01-22T13:20:42.182Z,45
2017-01-22T13:21:52.641Z,40
2017-01-22T13:23:02.240Z,40
2017-01-22T13:24:11.867Z,40
2017-01-22T13:25:20.826Z,40
2017-01-22T13:26:30.457Z,40
2017-01-22T13:27:39.569Z,40
2017-01-22T13:28:48.568Z,40
2017-01-22T13:29:57.707Z,40
2017-01-22T13:31:06.843Z,40
2017-01-22T13:32:15.976Z,40
2017-01-22T13:33:25.634Z,40
2017-01-22T13:34:36.055Z,40
2017-01-22T13:35:45.009Z,40
2017-01-22T13:36:53.968Z,40
2017-01-22T13:38:02.928Z,40
2017-01-22T13:39:11.888Z,40
2017-01-22T13:40:20.847Z,40
2017-01-22T13:41:29.806Z,40
2017-01-22T13:42:38.850Z,40
2017-01-22T13:43:47.810Z,40
2017-01-22T13:44:56.857Z,40
2017-01-22T13:46:05.812Z,40
2017-01-22T13:47:14.767Z,35
2017-01-22T13:48:23.731Z,35
2017-01-22T13:49:32.691Z,35
2017-01-22T13:50:41.655Z,35
2017-01-22T13:51:50.642Z,35
2017-01-22T13:52:59.606Z,35
2017-01-22T13:54:08.560Z,35
2017-01-22T13:55:17.518Z,35
2017-01-22T13:56:26.473Z,35
2017-01-22T13:57:35.433Z,35
2017-01-22T13:58:44.390Z,35
2017-01-22T13:59:53.352Z,35
2017-01-22T14:01:02.304Z,35
2017-01-22T14:02:11.261Z,35
2017-01-22T14:03:20.217Z,35
2017-01-22T14:04:29.172Z,35
2017-01-22T14:05:38.131Z,30
2017-01-22T14:06:47.095Z,30
2017-01-22T14:07:56.195Z,30
2017-01-22T14:09:05.149Z,30
2017-01-22T14:10:14.127Z,30
2017-01-22T14:11:23.085Z,30
2017-01-22T14:12:32.125Z,30
2017-01-22T14:13:41.090Z,30
2017-01-22T14:14:50.048Z,30
2017-01-22T14:15:59.028Z,30
2017-01-22T14:17:08.127Z,30
2017-01-22T14:18:17.533Z,30
2017-01-22T14:19:27.093Z,30
2017-01-22T14:20:36.375Z,30
2017-01-22T14:21:45.987Z,25
2017-01-22T14:22:55.310Z,25
2017-01-22T14:24:04.878Z,25
2017-01-22T14:25:14.912Z,25
2017-01-22T14:26:25.056Z,25
2017-01-22T14:27:34.682Z,25
2017-01-22T14:28:43.640Z,25
2017-01-22T14:29:53.804Z,25
2017-01-22T14:31:03.286Z,25
2017-01-22T14:32:12.245Z,25
2017-01-22T14:33:21.949Z,25
2017-01-22T14:34:31.245Z,25
2017-01-22T14:35:40.311Z,25
2017-01-22T14:36:50.193Z,20
2017-01-22T14:37:59.187Z,20
2017-01-22T14:39:08.176Z,20
2017-01-22T14:40:18.612Z,20
2017-01-22T14:41:28.049Z,20
2017-01-22T14:42:37.878Z,20
2017-01-22T14:43:47.920Z,20
2017-01-22T14:44:56.980Z,20
2017-01-22T14:46:05.983Z,20
2017-01-22T14:47:15.239Z,20
2017-01-22T14:48:25.365Z,20
2017-01-22T14:49:34.659Z,20
2017-01-22T14:50:43.881Z,15
2017-01-22T14:51:53.532Z,15
2017-01-22T14:53:02.984Z,15
2017-01-22T14:54:13.000Z,15
2017-01-22T14:55:22.968Z,15
2017-01-22T14:56:32.024Z,15
2017-01-22T14:57:41.658Z,15
2017-01-22T14:58:50.779Z,15
2017-01-22T15:00:00.134Z,15
2017-01-22T15:01:09.760Z,15
2017-01-22T15:02:19.169Z,15
2017-01-22T15:03:28.216Z,10
2017-01-22T15:04:37.176Z,10
2017-01-22T15:05:46.143Z,10
2017-01-22T15:06:55.108Z,10
2017-01-22T15:08:04.090Z,10
2017-01-22T15:09:13.191Z,10
2017-01-22T15:10:22.174Z,10
2017-01-22T15:11:31.138Z,10
2017-01-22T15:12:40.107Z,10
2017-01-22T15:13:49.116Z,10
2017-01-22T15:14:58.094Z,10
2017-01-22T15:16:07.271Z,5
2017-01-22T15:17:16.534Z,5
2017-01-22T15:18:25.742Z,5
2017-01-22T15:19:34.717Z,5
2017-01-22T15:20:43.833Z,5
2017-01-22T15:21:52.811Z,5
2017-01-22T15:23:01.847Z,5
2017-01-22T15:24:10.884Z,5
2017-01-22T15:25:20.337Z,5
2017-01-22T15:26:29.774Z,5
2017-01-22T15:27:39.343Z,5
2017-01-22T15:28:50.950Z,5
2017-01-22T15:30:01.621Z,0
2017-01-22T15:31:13.367Z,0
2017-01-22T15:32:24.106Z,0
2017-01-22T15:33:35.510Z,0
2017-01-22T15:34:45.722Z,0
2017-01-22T15:35:56.478Z,0
2017-01-22T15:37:08.038Z,0
2017-01-22T15:38:17.661Z,0
2017-01-22T15:39:26.979Z,0
2017-01-22T15:40:37.559Z,0
2017-01-22T15:41:47.318Z,0
2017-01-22T15:42:57.724Z,0
2017-01-22T15:44:08.957Z,0
2017-01-22T15:45:19.130Z,0
2017-01-22T15:46:29.604Z,0
2017-01-22T15:47:39.913Z,0
2017-01-22T15:48:50.990Z,0
2017-01-22T15:50:00.291Z,0
2017-01-22T15:51:10.473Z,0
2017-01-22T15:52:20.032Z,0
2017-01-22T15:53:28.990Z,0
2017-01-22T15:54:37.947Z,0
2017-01-22T15:55:46.989Z,0
2017-01-22T15:56:55.945Z,0
2017-01-22T15:58:07.968Z,0
2017-01-22T15:59:18.869Z,0
2017-01-22T16:00:27.819Z,0
2017-01-22T16:01:36.833Z,0
2017-01-22T16:02:46.542Z,0
2017-01-22T16:03:55.498Z,0
2017-01-22T16:05:04.451Z,0
2017-01-22T16:06:13.400Z,0
2017-01-22T16:07:22.357Z,0
2017-01-22T16:08:31.313Z,0
2017-01-22T16:09:40.269Z,0
2017-01-22T16:10:49.233Z,0
2017-01-22T16:11:58.205Z,0
2017-01-22T16:13:07.192Z,0
2017-01-22T16:14:16.148Z,0
2017-01-22T16:15:25.103Z,0
2017-01-22T16:16:34.063Z,0
2017-01-22T16:17:43.019Z,0
2017-01-22T16:18:51.976Z,0
2017-01-22T16:20:00.934Z,0
2017-01-22T16:21:09.893Z,0
2017-01-22T16:22:18.853Z,0
2017-01-22T16:23:27.829Z,0
2017-01-22T16:24:36.777Z,0
2017-01-22T16:25:45.731Z,0
2017-01-22T16:26:54.691Z,0
2017-01-22T16:28:03.687Z,0
2017-01-22T16:29:12.643Z,0
2017-01-22T16:30:21.600Z,0
2017-01-22T16:31:30.564Z,0
2017-01-22T16:32:39.520Z,0
2017-01-22T16:33:48.563Z,0
2017-01-22T16:34:57.519Z,0
2017-01-22T16:36:06.884Z,0
2017-01-22T16:37:15.840Z,0
2017-01-22T16:38:24.798Z,0
2017-01-22T16:39:33.787Z,0
2017-01-22T16:40:42.744Z,0
2017-01-22T16:41:51.701Z,0
2017-01-22T16:43:00.740Z,0
2017-01-22T16:44:09.693Z,0
2017-01-22T16:45:18.644Z,0
2017-01-22T16:46:27.597Z,0
2017-01-22T16:47:36.549Z,0
2017-01-22T16:48:45.505Z,0
2017-01-22T16:49:54.546Z,0
2017-01-22T16:51:03.507Z,0
2017-01-22T16:52:12.464Z,0
2017-01-22T16:53:21.420Z,0
2017-01-22T16:54:30.380Z,0
2017-01-22T16:55:39.332Z,0
2017-01-22T16:56:48.313Z,0
2017-01-22T16:57:57.266Z,0
2017-01-22T16:59:06.227Z,0